Time;durP1;ratioP1;P1;durP2;ratioP2;P2;SDS_P1;SDS_P2;PMS_P1;PMS_P2;Temp;Humidity;BMP_temperature;BMP_pressure;BME280_temperature;BME280_humidity;BME280_pressure;Samples;Min_cycle;Max_cycle;Signal;HPM_P1;HPM_P2
2022/11/21 00:00:49;;;;;;;0.10;0.10;;;4.50;99.90;;;;;;5021869;28;20638;-75
2022/11/21 00:03:14;;;;;;;0.20;0.20;;;4.30;99.90;;;;;;5020735;28;20341;-75
2022/11/21 00:05:42;;;;;;;0.10;0.10;;;4.50;99.90;;;;;;5020632;28;20230;-75
2022/11/21 00:08:10;;;;;;;0.10;0.10;;;4.40;99.90;;;;;;5021949;28;20038;-75
2022/11/21 00:10:38;;;;;;;0.00;0.00;;;4.30;99.90;;;;;;5020127;28;20030;-75
2022/11/21 00:13:04;;;;;;;0.00;0.00;;;4.40;99.90;;;;;;5020149;28;20025;-76
2022/11/21 00:15:30;;;;;;;0.00;0.00;;;4.30;99.90;;;;;;5020379;28;20029;-76
2022/11/21 00:17:56;;;;;;;0.08;0.08;;;4.40;99.90;;;;;;5020841;28;20024;-76
2022/11/21 00:20:22;;;;;;;0.00;0.00;;;4.40;99.90;;;;;;5021446;28;20258;-75
2022/11/21 00:22:48;;;;;;;0.08;0.08;;;4.30;99.90;;;;;;5020637;28;20044;-75
2022/11/21 00:25:15;;;;;;;0.00;0.00;;;;;;;;;;5002781;28;20385;-74
2022/11/21 00:27:42;;;;;;;0.00;0.00;;;4.40;99.90;;;;;;5019733;28;20440;-75
2022/11/21 00:30:09;;;;;;;0.00;0.00;;;4.40;99.90;;;;;;5020105;28;20231;-75
2022/11/21 00:32:36;;;;;;;0.00;0.00;;;5.90;99.90;;;;;;5019540;28;20052;-76
2022/11/21 00:35:04;;;;;;;0.10;0.10;;;4.40;99.90;;;;;;5020675;28;20459;-75
2022/11/21 00:37:31;;;;;;;0.00;0.00;;;4.40;99.90;;;;;;5021117;28;20045;-75
2022/11/21 00:39:57;;;;;;;0.10;0.10;;;4.50;99.90;;;;;;5024334;28;20285;-75
2022/11/21 00:42:23;;;;;;;0.10;0.10;;;4.40;99.90;;;;;;5021238;28;20026;-75
2022/11/21 00:44:49;;;;;;;0.10;0.10;;;4.50;99.90;;;;;;5020157;28;20210;-75
2022/11/21 00:47:14;;;;;;;0.00;0.00;;;4.40;99.90;;;;;;5002070;28;20037;-75
2022/11/21 00:49:40;;;;;;;0.00;0.00;;;4.40;99.90;;;;;;5019890;28;20102;-75
2022/11/21 00:52:06;;;;;;;0.20;0.20;;;4.40;99.90;;;;;;5022502;28;20021;-74
2022/11/21 00:54:32;;;;;;;0.00;0.00;;;4.40;99.90;;;;;;5021812;28;20104;-75
2022/11/21 00:56:57;;;;;;;0.00;0.00;;;4.40;99.90;;;;;;5021018;28;20239;-74
2022/11/21 00:59:23;;;;;;;0.00;0.00;;;4.40;99.90;;;;;;5022575;28;20095;-75
2022/11/21 01:01:49;;;;;;;0.10;0.10;;;4.40;99.90;;;;;;5022205;28;20051;-75
2022/11/21 01:04:14;;;;;;;0.00;0.00;;;4.40;99.90;;;;;;5027010;28;20061;-76
2022/11/21 01:06:40;;;;;;;0.00;0.00;;;4.40;99.90;;;;;;5008863;28;20452;-76
2022/11/21 01:09:06;;;;;;;0.10;0.10;;;4.80;99.90;;;;;;5030144;28;20128;-77
2022/11/21 01:11:32;;;;;;;0.00;0.00;;;4.40;99.90;;;;;;5030039;28;20025;-76
2022/11/21 01:13:58;;;;;;;0.10;0.10;;;4.50;99.90;;;;;;5028103;28;20075;-75
2022/11/21 01:16:26;;;;;;;0.10;0.10;;;4.50;99.90;;;;;;5008522;28;20034;-75
2022/11/21 01:18:53;;;;;;;0.10;0.10;;;4.50;99.90;;;;;;5004498;28;20030;-75
2022/11/21 01:21:20;;;;;;;0.10;0.10;;;4.50;99.90;;;;;;5022017;28;20711;-75
2022/11/21 01:23:46;;;;;;;0.50;0.50;;;4.60;99.90;;;;;;5021770;28;20030;-75
2022/11/21 01:26:15;;;;;;;0.10;0.10;;;4.60;99.90;;;;;;5022655;28;20113;-75
2022/11/21 01:28:41;;;;;;;0.10;0.10;;;4.50;99.90;;;;;;5022740;28;20040;-74
2022/11/21 01:31:15;;;;;;;0.00;0.00;;;4.60;99.90;;;;;;5024017;28;20117;-75
2022/11/21 01:33:40;;;;;;;;;;;4.60;99.90;;;;;;5031789;28;20064;-76
2022/11/21 01:36:17;;;;;;;0.10;0.10;;;5.20;99.90;;;;;;5031171;28;20035;-75
2022/11/21 01:38:45;;;;;;;0.00;0.00;;;4.70;99.90;;;;;;5028947;28;20022;-78
2022/11/21 01:41:13;;;;;;;0.10;0.10;;;4.80;99.90;;;;;;5032362;28;20021;-75
2022/11/21 01:43:39;;;;;;;0.10;0.10;;;4.80;99.90;;;;;;5024259;28;20528;-75
2022/11/21 01:46:08;;;;;;;0.13;0.13;;;4.80;99.90;;;;;;5024026;28;20269;-75
2022/11/21 01:48:56;;;;;;;0.10;0.10;;;4.80;99.90;;;;;;5023953;28;20021;-75
2022/11/21 01:51:46;;;;;;;0.10;0.10;;;4.90;99.90;;;;;;5024601;28;20021;-76
2022/11/21 01:54:29;;;;;;;0.00;0.00;;;4.80;99.90;;;;;;5024874;28;20064;-76
2022/11/21 01:57:00;;;;;;;0.00;0.00;;;4.80;99.90;;;;;;5024155;28;20122;-75
2022/11/21 01:59:33;;;;;;;0.00;0.00;;;4.80;99.90;;;;;;5024818;28;20048;-75
2022/11/21 02:02:01;;;;;;;0.10;0.10;;;4.80;99.90;;;;;;5026565;28;20061;-75
2022/11/21 02:04:30;;;;;;;9.68;9.35;;;4.80;99.90;;;;;;5026323;28;20350;-75
2022/11/21 02:06:57;;;;;;;0.10;0.10;;;4.80;99.90;;;;;;5023229;28;20034;-76
2022/11/21 02:09:23;;;;;;;0.10;0.10;;;4.80;99.90;;;;;;5023835;28;20029;-76
2022/11/21 02:11:54;;;;;;;0.10;0.10;;;4.80;99.90;;;;;;5023471;28;20270;-75
2022/11/21 02:14:20;;;;;;;0.10;0.10;;;4.80;99.90;;;;;;5022839;28;20496;-76
2022/11/21 02:16:46;;;;;;;0.30;0.30;;;4.90;99.90;;;;;;5023390;28;20064;-75
2022/11/21 02:19:25;;;;;;;1.83;1.75;;;4.90;99.90;;;;;;5023707;28;20331;-75
2022/11/21 02:22:10;;;;;;;0.10;0.10;;;4.90;99.90;;;;;;5022915;28;20025;-75
2022/11/21 02:24:54;;;;;;;0.05;0.05;;;5.00;99.90;;;;;;5022817;28;20017;-75
2022/11/21 02:27:20;;;;;;;0.10;0.10;;;5.00;99.90;;;;;;5023212;28;20049;-75
2022/11/21 02:29:46;;;;;;;0.10;0.10;;;5.00;99.90;;;;;;5005598;28;20311;-75
2022/11/21 02:32:21;;;;;;;5.05;2.25;;;4.90;99.90;;;;;;5022991;28;20291;-75
2022/11/21 02:34:47;;;;;;;0.00;0.00;;;4.90;99.90;;;;;;5024290;28;20017;-75
2022/11/21 02:37:13;;;;;;;0.10;0.10;;;4.90;99.90;;;;;;5023433;28;20255;-76
2022/11/21 02:39:39;;;;;;;0.10;0.10;;;4.90;99.90;;;;;;5023025;28;20025;-76
2022/11/21 02:42:43;;;;;;;0.10;0.10;;;5.00;99.90;;;;;;5022219;28;20053;-75
2022/11/21 02:45:13;;;;;;;0.10;0.10;;;5.00;99.90;;;;;;4922347;29;20027;-75
2022/11/21 02:47:41;;;;;;;0.10;0.10;;;5.00;99.90;;;;;;4921875;29;20042;-75
2022/11/21 02:50:21;;;;;;;0.10;0.10;;;5.10;99.90;;;;;;4922878;29;20545;-75
2022/11/21 02:52:47;;;;;;;0.00;0.00;;;5.00;99.90;;;;;;4925193;29;20365;-75
2022/11/21 02:55:14;;;;;;;0.00;0.00;;;5.10;99.90;;;;;;4906946;29;20050;-75
2022/11/21 02:57:40;;;;;;;0.10;0.10;;;5.00;99.90;;;;;;4923192;29;20178;-75
2022/11/21 03:00:07;;;;;;;3.00;2.90;;;5.00;99.90;;;;;;4921794;29;20530;-75
2022/11/21 03:02:34;;;;;;;0.10;0.10;;;5.00;99.90;;;;;;4921234;29;20104;-75
2022/11/21 03:05:00;;;;;;;7.55;7.22;;;5.00;99.90;;;;;;4906169;29;20667;-76
2022/11/21 03:07:26;;;;;;;1.20;1.20;;;5.80;99.90;;;;;;4922506;29;20491;-75
2022/11/21 03:09:52;;;;;;;0.00;0.00;;;5.00;99.90;;;;;;4922592;29;20036;-75
2022/11/21 03:12:18;;;;;;;0.10;0.10;;;5.00;99.90;;;;;;4922705;29;20036;-75
2022/11/21 03:14:44;;;;;;;0.10;0.10;;;;;;;;;;4922587;28;20103;-75
2022/11/21 03:17:10;;;;;;;0.10;0.10;;;;;;;;;;5022723;28;20030;-75
2022/11/21 03:19:37;;;;;;;0.10;0.10;;;5.00;99.90;;;;;;5024345;28;20254;-75
2022/11/21 03:22:03;;;;;;;0.10;0.10;;;5.00;99.90;;;;;;5024016;28;20116;-75
2022/11/21 03:24:29;;;;;;;0.10;0.10;;;5.00;99.90;;;;;;5027058;28;20056;-75
2022/11/21 03:26:55;;;;;;;0.10;0.10;;;5.00;99.90;;;;;;5022307;28;20405;-75
2022/11/21 03:29:20;;;;;;;0.00;0.00;;;5.10;99.90;;;;;;5022451;28;20246;-76
2022/11/21 03:31:46;;;;;;;0.00;0.00;;;5.10;99.90;;;;;;5022008;28;20255;-75
2022/11/21 03:34:12;;;;;;;0.10;0.10;;;5.10;99.90;;;;;;5022400;28;20464;-75
2022/11/21 03:36:38;;;;;;;0.00;0.00;;;5.10;99.90;;;;;;5023427;28;20047;-75
2022/11/21 03:39:04;;;;;;;0.43;0.43;;;5.10;99.90;;;;;;5021895;28;20303;-75
2022/11/21 03:41:30;;;;;;;0.10;0.10;;;5.10;99.90;;;;;;5021979;28;20532;-75
2022/11/21 03:44:01;;;;;;;0.10;0.10;;;5.10;99.90;;;;;;5021498;28;20465;-76
2022/11/21 03:46:31;;;;;;;0.10;0.10;;;5.10;99.90;;;;;;5021609;28;20025;-75
2022/11/21 03:48:57;;;;;;;0.10;0.10;;;;;;;;;;5021607;28;20029;-78
2022/11/21 03:51:24;;;;;;;0.10;0.10;;;5.10;99.90;;;;;;5021131;28;20036;-75
2022/11/21 03:53:50;;;;;;;0.22;0.22;;;5.10;99.90;;;;;;5021704;28;20615;-75
2022/11/21 03:56:16;;;;;;;0.03;0.03;;;5.30;99.90;;;;;;5020942;28;20026;-75
2022/11/21 03:58:42;;;;;;;0.03;0.03;;;5.00;99.90;;;;;;5023598;28;20044;-75
2022/11/21 04:01:09;;;;;;;0.10;0.10;;;;;;;;;;5003218;28;20366;-75
2022/11/21 04:03:35;;;;;;;0.10;0.10;;;;;;;;;;5020434;28;20128;-75
2022/11/21 04:06:01;;;;;;;0.10;0.10;;;;;;;;;;5021754;28;20018;-75
2022/11/21 04:08:28;;;;;;;0.10;0.10;;;;;;;;;;5021022;28;20124;-75
2022/11/21 04:10:54;;;;;;;0.10;0.10;;;5.00;99.90;;;;;;5003099;28;20026;-75
2022/11/21 04:13:21;;;;;;;0.10;0.10;;;4.90;99.90;;;;;;5021120;28;20087;-76
2022/11/21 04:15:47;;;;;;;0.90;0.90;;;4.90;99.90;;;;;;5021233;28;20026;-75
2022/11/21 04:18:14;;;;;;;0.10;0.10;;;;;;;;;;5003899;28;20037;-75
2022/11/21 04:20:39;;;;;;;0.10;0.10;;;4.90;99.90;;;;;;5004422;28;20049;-76
2022/11/21 04:23:06;;;;;;;0.10;0.10;;;4.90;99.90;;;;;;5022377;28;20384;-75
2022/11/21 04:25:32;;;;;;;0.00;0.00;;;;;;;;;;5022263;28;20244;-75
2022/11/21 04:27:59;;;;;;;1.70;1.63;;;5.00;99.90;;;;;;5021200;28;20517;-75
2022/11/21 04:30:26;;;;;;;0.10;0.10;;;4.90;99.90;;;;;;5022192;28;20017;-75
2022/11/21 04:32:53;;;;;;;0.10;0.10;;;4.80;99.90;;;;;;5022146;28;20025;-76
2022/11/21 04:35:19;;;;;;;0.10;0.10;;;4.90;99.90;;;;;;5024402;28;20285;-75
2022/11/21 04:37:45;;;;;;;0.20;0.20;;;4.90;99.90;;;;;;5005239;28;20405;-75
2022/11/21 04:40:12;;;;;;;0.10;0.10;;;5.00;99.90;;;;;;5005508;28;20036;-75
2022/11/21 04:42:41;;;;;;;0.10;0.10;;;4.90;99.90;;;;;;5023670;28;20021;-75
2022/11/21 04:45:07;;;;;;;0.10;0.10;;;4.90;99.90;;;;;;5027612;28;20026;-75
2022/11/21 04:47:41;;;;;;;0.10;0.10;;;4.90;99.90;;;;;;5012198;28;20340;-76
2022/11/21 04:50:08;;;;;;;;;;;4.90;99.90;;;;;;5031645;28;20350;-75
2022/11/21 04:52:34;;;;;;;0.10;0.10;;;4.90;99.90;;;;;;5026961;28;19916;-75
2022/11/21 04:55:00;;;;;;;0.10;0.10;;;4.90;99.90;;;;;;5023258;28;20247;-75
2022/11/21 04:57:27;;;;;;;0.10;0.10;;;4.90;99.90;;;;;;5023387;28;20053;-76
2022/11/21 04:59:53;;;;;;;0.10;0.10;;;4.80;99.90;;;;;;5021049;28;20033;-76
2022/11/21 05:02:19;;;;;;;0.00;0.00;;;4.80;99.90;;;;;;5020660;28;20700;-75
2022/11/21 05:04:45;;;;;;;0.00;0.00;;;4.80;99.90;;;;;;5020737;28;20096;-75
2022/11/21 05:07:11;;;;;;;0.10;0.10;;;4.90;99.90;;;;;;5020811;28;20365;-75
2022/11/21 05:09:37;;;;;;;0.10;0.10;;;4.90;99.90;;;;;;5020492;28;20661;-76
2022/11/21 05:14:51;;;;;;;0.10;0.10;;;4.90;99.90;;;;;;5021803;28;20370;-75
2022/11/21 05:17:17;;;;;;;0.10;0.10;;;4.80;99.90;;;;;;5023899;28;20026;-75
2022/11/21 05:19:43;;;;;;;0.10;0.10;;;4.90;99.90;;;;;;5024131;28;20306;-75
2022/11/21 05:22:08;;;;;;;0.10;0.10;;;4.90;99.90;;;;;;5024285;28;20326;-75
2022/11/21 05:24:34;;;;;;;3.05;2.92;;;4.90;99.90;;;;;;5005790;28;20037;-75
2022/11/21 05:27:00;;;;;;;0.10;0.10;;;4.60;99.90;;;;;;5024751;28;20100;-75
2022/11/21 05:29:27;;;;;;;0.10;0.10;;;5.00;99.90;;;;;;5025862;28;20017;-76
2022/11/21 05:31:52;;;;;;;0.10;0.10;;;4.90;99.90;;;;;;5024171;28;20300;-75
2022/11/21 05:34:18;;;;;;;0.05;0.05;;;5.00;99.90;;;;;;5023748;28;20112;-76
2022/11/21 05:36:44;;;;;;;0.10;0.10;;;4.90;99.90;;;;;;5023686;28;20029;-77
2022/11/21 05:39:10;;;;;;;0.20;0.20;;;6.70;99.90;;;;;;5005685;28;20040;-76
2022/11/21 05:41:35;;;;;;;0.00;0.00;;;4.80;99.90;;;;;;5023281;28;20103;-75
2022/11/21 05:44:01;;;;;;;0.20;0.20;;;4.70;99.90;;;;;;5006079;28;20021;-75
2022/11/21 05:46:27;;;;;;;0.03;0.03;;;5.40;99.90;;;;;;5023605;28;20444;-75
2022/11/21 05:48:54;;;;;;;0.60;0.60;;;4.70;99.90;;;;;;5023874;28;20080;-75
2022/11/21 05:51:20;;;;;;;0.00;0.00;;;4.70;99.90;;;;;;5023689;28;20184;-75
2022/11/21 05:53:47;;;;;;;0.10;0.10;;;3.40;99.90;;;;;;5024309;28;20257;-76
2022/11/21 05:56:18;;;;;;;0.10;0.10;;;4.90;99.90;;;;;;5023603;28;20030;-75
2022/11/21 05:58:44;;;;;;;0.43;0.43;;;4.90;99.90;;;;;;5024042;28;20222;-75
2022/11/21 06:01:14;;;;;;;0.10;0.10;;;5.00;99.90;;;;;;5023736;28;20029;-75
2022/11/21 06:03:41;;;;;;;0.00;0.00;;;5.00;99.90;;;;;;4994303;28;20052;-76
2022/11/21 06:06:09;;;;;;;6.38;6.18;;;5.10;99.90;;;;;;5025666;28;20120;-75
2022/11/21 06:08:36;;;;;;;0.10;0.10;;;5.10;99.90;;;;;;5026699;28;20303;-76
2022/11/21 06:11:02;;;;;;;0.00;0.00;;;5.10;99.90;;;;;;5023346;28;20018;-75
2022/11/21 06:13:28;;;;;;;0.03;0.03;;;5.10;99.90;;;;;;5023133;28;20021;-75
2022/11/21 06:16:03;;;;;;;0.00;0.00;;;5.10;99.90;;;;;;5004989;28;20398;-74
2022/11/21 06:18:32;;;;;;;0.10;0.10;;;5.20;99.90;;;;;;5026137;28;20021;-74
2022/11/21 06:21:02;;;;;;;0.10;0.10;;;5.20;99.90;;;;;;5022187;28;20056;-73
2022/11/21 06:23:27;;;;;;;0.10;0.10;;;5.20;99.90;;;;;;5027212;28;20017;-74
2022/11/21 06:25:58;;;;;;;0.20;0.20;;;5.20;99.90;;;;;;5022514;28;20067;-76
2022/11/21 06:28:25;;;;;;;0.10;0.10;;;5.20;99.90;;;;;;5022359;28;20527;-74
2022/11/21 06:30:51;;;;;;;0.10;0.10;;;5.20;99.90;;;;;;5022626;28;20207;-74
2022/11/21 06:33:18;;;;;;;0.03;0.03;;;5.20;99.90;;;;;;5022733;28;20025;-74
2022/11/21 06:35:44;;;;;;;0.10;0.10;;;5.10;99.90;;;;;;5022852;28;20269;-74
2022/11/21 06:38:12;;;;;;;0.10;0.10;;;5.20;99.90;;;;;;5024476;28;20496;-74
2022/11/21 06:40:39;;;;;;;3.13;3.03;;;5.10;99.90;;;;;;5024008;28;20649;-74
2022/11/21 06:43:04;;;;;;;0.08;0.08;;;5.10;99.90;;;;;;5022951;28;20033;-74
2022/11/21 06:45:30;;;;;;;0.10;0.10;;;4.20;99.90;;;;;;5023659;28;20022;-74
2022/11/21 06:47:56;;;;;;;0.55;0.55;;;5.30;99.90;;;;;;5023110;28;20034;-74
2022/11/21 06:50:22;;;;;;;0.10;0.10;;;5.30;99.90;;;;;;5023825;28;20573;-75
2022/11/21 06:52:48;;;;;;;0.10;0.10;;;5.20;99.90;;;;;;5024174;28;20033;-76
2022/11/21 06:55:15;;;;;;;3.50;3.40;;;;;;;;;;5023986;28;20025;-76
2022/11/21 06:57:43;;;;;;;0.10;0.10;;;5.40;99.90;;;;;;5024995;28;20033;-75
2022/11/21 07:00:09;;;;;;;0.10;0.10;;;5.40;99.90;;;;;;5023060;28;20119;-74
2022/11/21 07:02:35;;;;;;;0.10;0.10;;;5.40;99.90;;;;;;5022070;28;20128;-74
2022/11/21 07:05:07;;;;;;;0.20;0.20;;;5.40;99.90;;;;;;5028219;28;20076;-74
2022/11/21 07:07:32;;;;;;;1.02;1.02;;;5.40;99.90;;;;;;5004135;28;20034;-73
2022/11/21 07:09:58;;;;;;;0.10;0.10;;;5.40;99.90;;;;;;5022650;28;20020;-75
2022/11/21 07:15:15;;;;;;;0.10;0.10;;;5.40;99.90;;;;;;4998373;28;20044;-75
2022/11/21 07:17:41;;;;;;;0.10;0.10;;;;;;;;;;5005165;28;20233;-75
2022/11/21 07:20:08;;;;;;;1.27;1.27;;;5.20;99.90;;;;;;5023605;28;20026;-75
2022/11/21 07:22:34;;;;;;;0.10;0.10;;;5.20;99.90;;;;;;5005442;28;20036;-77
2022/11/21 07:25:05;;;;;;;0.08;0.08;;;5.10;99.90;;;;;;5008339;28;20025;-77
2022/11/21 07:27:31;;;;;;;0.13;0.13;;;4.30;99.90;;;;;;5009846;28;20048;-76
2022/11/21 07:29:58;;;;;;;0.10;0.10;;;5.10;99.90;;;;;;5048288;23;20079;-77
2022/11/21 07:32:24;;;;;;;0.10;0.10;;;5.10;99.90;;;;;;5005565;28;20036;-76
2022/11/21 07:34:50;;;;;;;0.20;0.20;;;5.10;99.90;;;;;;5005020;28;20048;-74
2022/11/21 07:37:16;;;;;;;0.10;0.10;;;5.20;99.90;;;;;;5001543;28;20021;-75
2022/11/21 07:39:45;;;;;;;0.10;0.10;;;5.10;99.90;;;;;;5019667;28;20033;-74
2022/11/21 07:42:11;;;;;;;0.00;0.00;;;;;;;;;;4979203;28;20031;-75
2022/11/21 07:44:37;;;;;;;0.10;0.10;;;5.20;99.90;;;;;;4978833;28;20035;-76
2022/11/21 07:47:02;;;;;;;0.10;0.10;;;5.30;99.90;;;;;;4981516;28;20042;-75
2022/11/21 07:49:28;;;;;;;0.10;0.10;;;5.30;99.90;;;;;;4985673;28;20026;-75
2022/11/21 07:51:54;;;;;;;0.10;0.10;;;5.30;99.90;;;;;;4983787;28;20038;-76
2022/11/21 07:54:19;;;;;;;0.10;0.10;;;5.30;99.90;;;;;;4984451;28;20173;-75
2022/11/21 07:56:45;;;;;;;0.30;0.30;;;5.30;99.90;;;;;;4981942;28;20789;-77
2022/11/21 07:59:12;;;;;;;0.10;0.10;;;5.40;99.90;;;;;;4987915;28;20085;-75
2022/11/21 08:01:38;;;;;;;0.10;0.10;;;5.40;99.90;;;;;;4984458;28;20709;-75
2022/11/21 08:04:10;;;;;;;0.10;0.10;;;5.50;99.90;;;;;;5296238;23;20055;-80
2022/11/21 08:06:39;;;;;;;0.10;0.10;;;5.50;99.90;;;;;;4987820;28;20422;-78
2022/11/21 08:09:05;;;;;;;0.10;0.10;;;;;;;;;;4985848;28;20069;-73
2022/11/21 08:11:31;;;;;;;0.55;0.55;;;5.60;99.90;;;;;;5003352;28;20022;-74
2022/11/21 08:13:58;;;;;;;0.10;0.10;;;5.50;99.90;;;;;;4983796;28;20018;-74
2022/11/21 08:16:26;;;;;;;0.10;0.10;;;5.60;99.90;;;;;;4982539;28;20030;-74
2022/11/21 08:18:52;;;;;;;0.10;0.10;;;5.50;99.90;;;;;;5001216;28;20034;-75
2022/11/21 08:21:19;;;;;;;0.10;0.10;;;5.60;99.90;;;;;;4999409;28;20030;-73
2022/11/21 08:23:57;;;;;;;0.10;0.10;;;5.80;99.90;;;;;;5008996;28;20033;-75
2022/11/21 08:26:23;;;;;;;0.10;0.10;;;;;;;;;;4984000;28;20026;-74
2022/11/21 08:28:49;;;;;;;0.10;0.10;;;;;;;;;;4984235;28;20030;-74
2022/11/21 08:31:15;;;;;;;0.10;0.10;;;;;;;;;;4983190;28;20152;-75
2022/11/21 08:33:41;;;;;;;0.10;0.10;;;6.10;99.90;;;;;;4999652;28;20030;-74
2022/11/21 08:36:07;;;;;;;0.17;0.17;;;6.20;99.90;;;;;;5000316;28;20109;-74
2022/11/21 08:38:33;;;;;;;0.10;0.10;;;6.40;99.90;;;;;;4999589;28;20018;-74
2022/11/21 08:44:04;;;;;;;0.20;0.20;;;6.60;99.90;;;;;;4918854;29;20023;-73
2022/11/21 08:46:32;;;;;;;0.10;0.10;;;6.90;99.90;;;;;;4921329;29;20070;-73
2022/11/21 08:48:58;;;;;;;0.10;0.10;;;7.10;99.90;;;;;;4920634;29;20031;-74
2022/11/21 08:51:24;;;;;;;0.10;0.10;;;7.20;99.90;;;;;;4921596;29;20167;-74
2022/11/21 08:53:50;;;;;;;0.10;0.10;;;7.20;99.90;;;;;;4920420;29;20079;-72
2022/11/21 08:56:16;;;;;;;0.10;0.10;;;7.20;99.90;;;;;;4942783;29;20036;-73
2022/11/21 08:58:41;;;;;;;0.10;0.10;;;7.10;99.90;;;;;;4923668;29;20123;-73
2022/11/21 09:01:07;;;;;;;3.72;3.63;;;7.10;99.90;;;;;;4925763;29;20119;-72
2022/11/21 09:03:34;;;;;;;0.20;0.20;;;7.10;99.90;;;;;;4922358;29;20036;-73
2022/11/21 09:05:59;;;;;;;0.20;0.20;;;7.10;99.90;;;;;;4919390;29;20561;-74
2022/11/21 09:08:25;;;;;;;1.30;1.27;;;7.10;99.90;;;;;;4919017;29;20043;-73
2022/11/21 09:10:51;;;;;;;0.13;0.13;;;7.10;99.90;;;;;;4919364;29;20055;-73
2022/11/21 09:13:17;;;;;;;0.55;0.55;;;7.10;99.90;;;;;;4920478;29;20214;-74
2022/11/21 09:18:27;;;;;;;;;;;7.20;99.90;;;;;;4981163;28;20037;-73
2022/11/21 09:20:52;;;;;;;0.20;0.20;;;7.60;99.90;;;;;;4981061;28;19906;-74
2022/11/21 09:23:18;;;;;;;0.20;0.20;;;7.80;99.90;;;;;;4982095;28;20031;-74
2022/11/21 09:25:44;;;;;;;0.20;0.20;;;8.50;99.90;;;;;;4980395;28;20018;-74
2022/11/21 09:28:12;;;;;;;0.10;0.10;;;9.40;99.90;;;;;;4980381;28;20046;-74
2022/11/21 09:30:38;;;;;;;0.10;0.10;;;9.90;99.90;;;;;;4978791;28;20029;-74
2022/11/21 09:33:15;;;;;;;0.30;0.30;;;10.40;99.90;;;;;;4980066;28;20010;-74
2022/11/21 09:35:41;;;;;;;0.10;0.10;;;10.10;99.90;;;;;;4981365;28;20021;-74
2022/11/21 09:38:07;;;;;;;0.30;0.30;;;10.00;99.90;;;;;;4981064;28;20676;-75
2022/11/21 09:40:34;;;;;;;0.20;0.20;;;9.80;99.90;;;;;;4981809;28;20018;-76
2022/11/21 09:43:29;;;;;;;0.20;0.20;;;9.60;99.90;;;;;;4982038;28;20556;-75
2022/11/21 09:46:05;;;;;;;0.98;0.98;;;9.40;99.90;;;;;;4982314;28;20512;-75
2022/11/21 09:48:57;;;;;;;0.20;0.20;;;9.80;99.90;;;;;;4980403;28;20679;-74
2022/11/21 09:51:25;;;;;;;1.92;1.85;;;9.00;99.90;;;;;;4980956;28;20623;-74
2022/11/21 09:53:54;;;;;;;3.55;3.45;;;9.00;99.90;;;;;;4980825;28;20688;-75
2022/11/21 09:56:25;;;;;;;0.20;0.20;;;9.00;99.90;;;;;;4980660;28;20740;-75
2022/11/21 09:59:10;;;;;;;0.25;0.25;;;8.80;99.90;;;;;;4981730;28;20019;-75
2022/11/21 10:01:37;;;;;;;0.20;0.20;;;8.40;99.90;;;;;;4984029;28;20053;-75
2022/11/21 10:04:04;;;;;;;0.30;0.30;;;8.40;99.90;;;;;;4985966;28;20041;-75
2022/11/21 10:07:01;;;;;;;0.10;0.10;;;8.40;99.90;;;;;;4983407;28;20129;-76
2022/11/21 10:09:49;;;;;;;0.10;0.10;;;8.40;99.90;;;;;;4905154;29;20717;-76
2022/11/21 10:12:57;;;;;;;3.00;1.85;;;8.20;99.90;;;;;;4904469;29;20040;-75
2022/11/21 10:15:30;;;;;;;0.20;0.20;;;8.10;99.90;;;;;;4829706;29;20233;-76
2022/11/21 10:17:56;;;;;;;0.50;0.50;;;8.20;99.90;;;;;;4848688;29;20038;-76
2022/11/21 10:20:49;;;;;;;0.20;0.20;;;8.40;99.90;;;;;;4848972;29;20081;-76
2022/11/21 10:23:21;;;;;;;0.20;0.20;;;8.60;99.90;;;;;;4847709;29;20109;-75
2022/11/21 10:25:56;;;;;;;0.20;0.20;;;8.80;99.90;;;;;;4834174;29;20694;-74
2022/11/21 10:28:58;;;;;;;0.20;0.20;;;9.10;99.90;;;;;;4848746;29;20079;-76
2022/11/21 10:31:29;;;;;;;0.30;0.30;;;9.00;99.90;;;;;;4847412;29;20046;-75
2022/11/21 10:33:57;;;;;;;0.15;0.15;;;9.00;99.90;;;;;;4850964;29;20042;-75
2022/11/21 10:36:40;;;;;;;0.40;0.40;;;8.80;99.90;;;;;;4852729;29;20040;-74
2022/11/21 10:39:25;;;;;;;0.20;0.20;;;8.60;99.90;;;;;;4859332;29;20184;-76
2022/11/21 10:42:00;;;;;;;0.20;0.20;;;8.40;99.90;;;;;;4851541;29;20656;-75
2022/11/21 10:47:32;;;;;;;0.10;0.10;;;5.80;99.90;;;;;;4904679;29;20091;-75
2022/11/21 10:50:05;;;;;;;0.20;0.20;;;8.10;99.90;;;;;;4923800;29;20111;-75
2022/11/21 10:52:35;;;;;;;0.20;0.20;;;8.00;99.90;;;;;;4954245;28;20054;-73
2022/11/21 10:55:03;;;;;;;0.20;0.20;;;7.90;99.90;;;;;;4983949;28;20053;-75
2022/11/21 10:57:49;;;;;;;0.20;0.20;;;7.90;99.90;;;;;;4983914;28;20081;-75
2022/11/21 11:00:26;;;;;;;0.20;0.20;;;7.80;99.90;;;;;;4983607;28;20014;-75
2022/11/21 11:02:54;;;;;;;0.85;0.85;;;7.70;99.90;;;;;;4985737;28;20045;-75
2022/11/21 11:05:20;;;;;;;0.20;0.20;;;7.70;99.90;;;;;;4993362;28;20069;-75
2022/11/21 11:08:09;;;;;;;0.20;0.20;;;7.50;99.90;;;;;;5003856;28;20030;-77
2022/11/21 11:11:00;;;;;;;3.15;3.03;;;8.80;99.90;;;;;;5007200;28;20014;-78
2022/11/21 11:16:09;;;;;;;0.20;0.20;;;8.70;99.90;;;;;;5007540;28;20066;-75
2022/11/21 11:18:40;;;;;;;0.20;0.20;;;8.30;99.90;;;;;;5010508;28;20018;-76
2022/11/21 11:21:20;;;;;;;0.20;0.20;;;8.00;99.90;;;;;;5015100;28;20026;-77
2022/11/21 11:23:49;;;;;;;0.30;0.30;;;8.00;99.90;;;;;;4986252;28;20034;-75
2022/11/21 11:26:30;;;;;;;0.10;0.10;;;7.80;99.90;;;;;;5006261;28;20016;-76
2022/11/21 11:29:13;;;;;;;0.20;0.20;;;7.80;99.90;;;;;;5006995;28;20034;-78
2022/11/21 11:31:54;;;;;;;1.58;1.58;;;8.20;99.90;;;;;;5008300;28;20018;-76
2022/11/21 11:34:21;;;;;;;0.20;0.20;;;8.40;99.90;;;;;;4993330;28;20034;-76
2022/11/21 11:37:03;;;;;;;0.85;0.82;;;7.40;99.90;;;;;;4987945;28;20064;-75
2022/11/21 11:39:39;;;;;;;0.10;0.10;;;8.10;99.90;;;;;;5006131;28;20046;-74
2022/11/21 11:48:38;;;;;;;0.20;0.20;;;7.90;99.90;;;;;;5004504;28;20033;-76
2022/11/21 11:51:19;;;;;;;0.20;0.20;;;7.70;99.90;;;;;;5002499;28;20010;-76
2022/11/21 11:53:50;;;;;;;0.22;0.22;;;7.60;99.90;;;;;;4996392;28;20034;-75
2022/11/21 11:56:46;;;;;;;0.20;0.20;;;7.50;99.90;;;;;;4989049;28;20044;-75
2022/11/21 11:59:51;;;;;;;0.20;0.20;;;7.40;99.90;;;;;;4904023;28;20258;-74
2022/11/21 12:02:26;;;;;;;0.10;0.10;;;7.40;99.90;;;;;;4845312;29;20044;-74
2022/11/21 12:05:03;;;;;;;0.20;0.20;;;7.50;99.90;;;;;;4844728;29;20746;-74
2022/11/21 12:07:40;;;;;;;0.17;0.17;;;7.40;99.90;;;;;;4845026;29;20038;-74
2022/11/21 12:12:05;;;;;;;0.17;0.17;;;7.40;99.90;;;;;;4847205;29;20036;-74
2022/11/21 12:13:31;;;;;;;0.15;0.15;;;7.40;99.90;;;;;;4845007;29;20553;-74
2022/11/21 12:16:02;;;;;;;2.67;2.47;;;7.40;99.90;;;;;;4845010;29;20041;-74
2022/11/21 12:18:59;;;;;;;0.20;0.20;;;7.30;99.90;;;;;;4845081;29;20109;-78
2022/11/21 12:21:27;;;;;;;0.30;0.30;;;10.00;99.90;;;;;;4848687;29;20580;-76
2022/11/21 12:23:56;;;;;;;0.22;0.22;;;7.20;99.90;;;;;;4854102;29;20091;-76
2022/11/21 12:26:46;;;;;;;0.30;0.30;;;7.10;99.90;;;;;;4834999;29;20033;-75
2022/11/21 12:29:31;;;;;;;0.20;0.20;;;7.10;99.90;;;;;;4856252;29;20182;-75
2022/11/21 12:32:08;;;;;;;0.20;0.20;;;7.00;99.90;;;;;;4852837;29;20029;-75
2022/11/21 12:35:01;;;;;;;0.10;0.10;;;5.70;99.90;;;;;;4851762;29;20115;-75
2022/11/21 12:37:57;;;;;;;0.10;0.10;;;6.70;99.90;;;;;;4982261;28;20030;-75
2022/11/21 12:44:45;;;;;;;0.10;0.10;;;6.60;99.90;;;;;;4845104;29;20492;-75
2022/11/21 12:54:28;;;;;;;2.20;2.15;;;6.50;99.90;;;;;;4818292;29;20118;-76
2022/11/21 12:56:41;;;;;;;0.10;0.10;;;6.40;99.90;;;;;;4837952;29;20109;-76
2022/11/21 12:59:12;;;;;;;0.10;0.10;;;6.30;99.90;;;;;;4845391;29;20065;-74
2022/11/21 13:01:50;;;;;;;0.10;0.10;;;6.40;99.90;;;;;;4844950;29;20681;-74
2022/11/21 13:04:20;;;;;;;1.20;1.10;;;6.30;99.90;;;;;;4845246;29;20032;-74
2022/11/21 13:06:47;;;;;;;0.10;0.10;;;6.30;99.90;;;;;;4845047;29;20041;-75
2022/11/21 13:09:21;;;;;;;11.40;10.95;;;6.30;99.90;;;;;;4845934;29;20052;-74
2022/11/21 13:12:02;;;;;;;0.10;0.10;;;6.30;99.90;;;;;;4849522;29;20030;-75
2022/11/21 13:14:49;;;;;;;0.10;0.10;;;6.30;99.90;;;;;;4846470;29;20034;-75
2022/11/21 13:17:34;;;;;;;0.10;0.10;;;6.30;99.90;;;;;;4877780;29;20771;-74
2022/11/21 13:20:19;;;;;;;0.10;0.10;;;6.30;99.90;;;;;;4964446;28;20039;-74
2022/11/21 13:22:45;;;;;;;0.20;0.20;;;6.40;99.90;;;;;;4981078;28;20053;-75
2022/11/21 13:25:39;;;;;;;0.00;0.00;;;6.30;99.90;;;;;;4979948;28;20670;-75
2022/11/21 13:28:17;;;;;;;0.20;0.20;;;6.30;99.90;;;;;;4980442;28;20031;-75
2022/11/21 13:30:51;;;;;;;0.20;0.20;;;6.20;99.90;;;;;;4981371;28;20022;-74
2022/11/21 13:33:46;;;;;;;0.35;0.35;;;6.20;99.90;;;;;;4981028;28;20022;-74
2022/11/21 13:36:35;;;;;;;0.10;0.10;;;6.20;99.90;;;;;;4981501;28;20539;-75
2022/11/21 13:39:02;;;;;;;0.10;0.10;;;6.30;99.90;;;;;;4985746;28;20031;-74
2022/11/21 13:44:30;;;;;;;0.40;0.40;;;8.20;99.90;;;;;;4984115;28;20034;-74
2022/11/21 13:47:01;;;;;;;0.30;0.30;;;6.40;99.90;;;;;;4981859;28;20042;-75
2022/11/21 13:49:52;;;;;;;0.10;0.10;;;6.40;99.90;;;;;;4983565;28;20026;-74
2022/11/21 13:52:18;;;;;;;0.10;0.10;;;6.50;99.90;;;;;;4909215;29;20044;-74
2022/11/21 13:55:25;;;;;;;0.20;0.20;;;6.50;99.90;;;;;;4909107;29;20036;-74
2022/11/21 13:57:59;;;;;;;0.08;0.08;;;6.60;99.90;;;;;;4904154;29;20064;-75